Time,TemperatureF,DewpointF,PressureIn,WindDirection,WindDirectionDegrees,WindSpeedMPH,WindSpeedGustMPH,Humidity,HourlyPrecipIn,Conditions,Clouds,dailyrainin,SolarRadiationWatts/m^2,SoftwareType,DateUTC
2013-10-24 00:01:00,70.6,58.3,30.11,ESE,113,1.2,1.2,65,0.00,CLR,SKC,0.00,0.0,WeatherDisplay:10.37,2013-10-24 05:01:00,
2013-10-24 00:35:00,70.7,57.0,30.10,ESE,113,1.2,1.2,62,0.00,OVC,SKC,0.00,0.0,WeatherDisplay:10.37,2013-10-24 05:35:00,
2013-10-24 00:40:00,70.8,57.1,30.10,ESE,113,1.2,1.2,62,0.00,OVC,SKC,0.00,0.0,WeatherDisplay:10.37,2013-10-24 05:40:00,
2013-10-24 00:45:00,70.9,57.7,30.10,ESE,113,1.2,1.2,63,0.00,OVC,SKC,0.00,0.0,WeatherDisplay:10.37,2013-10-24 05:45:00,
2013-10-24 00:50:00,70.8,57.6,30.10,ESE,113,1.2,1.2,63,0.00,OVC,SKC,0.00,0.0,WeatherDisplay:10.37,2013-10-24 05:50:00,
2013-10-24 00:55:00,71.0,57.3,30.10,ESE,113,1.2,1.2,62,0.00,OVC,SKC,0.00,0.0,WeatherDisplay:10.37,2013-10-24 05:55:00,
2013-10-24 01:00:00,71.0,57.3,30.10,ESE,113,2.3,2.3,62,0.00,OVC,SKC,0.00,0.0,WeatherDisplay:10.37,2013-10-24 06:00:00,
2013-10-24 01:05:00,71.0,56.9,30.10,ESE,113,1.2,1.2,61,0.00,OVC,SKC,0.00,0.0,WeatherDisplay:10.37,2013-10-24 06:05:00,
2013-10-24 01:10:00,71.1,57.0,30.09,ESE,113,2.3,2.3,61,0.00,OVC,SKC,0.00,0.0,WeatherDisplay:10.37,2013-10-24 06:10:00,
2013-10-24 01:15:00,71.2,57.5,30.09,ESE,123,2.3,2.3,62,0.00,OVC,SKC,0.00,0.0,WeatherDisplay:10.37,2013-10-24 06:15:00,
2013-10-24 01:20:00,71.2,57.5,30.09,ESE,123,1.2,1.2,62,0.00,OVC,SKC,0.00,0.0,WeatherDisplay:10.37,2013-10-24 06:20:00,
2013-10-24 01:25:00,71.2,57.5,30.09,ESE,123,1.2,1.2,62,0.00,OVC,SKC,0.00,0.0,WeatherDisplay:10.37,2013-10-24 06:25:00,
2013-10-24 01:30:00,71.1,57.0,30.09,ESE,123,2.3,2.3,61,0.00,OVC,SKC,0.00,0.0,WeatherDisplay:10.37,2013-10-24 06:30:00,
2013-10-24 01:35:00,71.1,57.0,30.09,ESE,123,1.2,1.2,61,0.00,OVC,SKC,0.00,0.0,WeatherDisplay:10.37,2013-10-24 06:35:00,
2013-10-24 01:40:00,71.1,57.0,30.09,ESE,123,0.0,0.0,61,0.00,OVC,SKC,0.00,0.0,WeatherDisplay:10.37,2013-10-24 06:40:00,
2013-10-24 01:45:00,70.9,56.8,30.09,ESE,123,0.0,0.0,61,0.00,OVC,SKC,0.00,0.0,WeatherDisplay:10.37,2013-10-24 06:45:00,
2013-10-24 01:50:00,70.8,57.1,30.09,ESE,123,0.0,0.0,62,0.00,OVC,SKC,0.00,0.0,WeatherDisplay:10.37,2013-10-24 06:50:00,
2013-10-24 01:55:00,70.7,57.9,30.09,ESE,123,0.0,0.0,64,0.00,OVC,SKC,0.00,0.0,WeatherDisplay:10.37,2013-10-24 06:55:00,
2013-10-24 02:00:00,70.5,59.0,30.09,ESE,123,0.0,0.0,67,0.00,OVC,SKC,0.00,0.0,WeatherDisplay:10.37,2013-10-24 07:00:00,
2013-10-24 02:05:00,70.3,59.2,30.09,ESE,123,0.0,0.0,68,0.00,OVC,SKC,0.00,0.0,WeatherDisplay:10.37,2013-10-24 07:05:00,
2013-10-24 02:10:00,70.0,57.3,30.09,ESE,123,0.0,0.0,64,0.00,OVC,SKC,0.00,0.0,WeatherDisplay:10.37,2013-10-24 07:10:00,
2013-10-24 02:15:00,70.1,58.6,30.09,ESE,123,0.0,0.0,67,0.00,OVC,SKC,0.00,0.0,WeatherDisplay:10.37,2013-10-24 07:15:00,
2013-10-24 02:20:00,70.0,59.8,30.09,ESE,123,0.0,0.0,70,0.00,OVC,SKC,0.00,0.0,WeatherDisplay:10.37,2013-10-24 07:20:00,
2013-10-24 02:25:00,69.7,59.9,30.09,ESE,123,0.0,0.0,71,0.00,OVC,SKC,0.00,0.0,WeatherDisplay:10.37,2013-10-24 07:25:00,
2013-10-24 02:30:00,69.5,60.5,30.09,ESE,123,0.0,0.0,73,0.00,OVC,SKC,0.00,0.0,WeatherDisplay:10.37,2013-10-24 07:30:00,
2013-10-24 02:35:00,69.0,60.0,30.09,ESE,123,0.0,0.0,73,0.00,OVC,SKC,0.00,0.0,WeatherDisplay:10.37,2013-10-24 07:35:00,
2013-10-24 02:40:00,68.7,60.1,30.09,ESE,123,0.0,0.0,74,0.00,OVC,SKC,0.00,0.0,WeatherDisplay:10.37,2013-10-24 07:40:00,
2013-10-24 02:45:00,68.4,59.8,30.09,ESE,123,0.0,0.0,74,0.00,OVC,SKC,0.00,0.0,WeatherDisplay:10.37,2013-10-24 07:45:00,
2013-10-24 02:50:00,68.2,60.0,30.09,SW,228,2.3,2.3,75,0.00,OVC,SKC,0.00,0.0,WeatherDisplay:10.37,2013-10-24 07:50:00,
2013-10-24 02:55:00,68.0,59.8,30.09,SW,228,1.2,1.2,75,0.00,OVC,SKC,0.00,0.0,WeatherDisplay:10.37,2013-10-24 07:55:00,
2013-10-24 03:00:00,68.1,59.9,30.09,SW,228,0.0,0.0,75,0.00,OVC,SKC,0.00,0.0,WeatherDisplay:10.37,2013-10-24 08:00:00,
2013-10-24 03:19:00,68.2,61.4,30.08,SW,228,1.2,1.2,79,0.00,CLR,SKC,0.00,0.0,WeatherDisplay:10.37,2013-10-24 08:19:00,
2013-10-24 03:24:00,68.2,61.8,30.08,SW,228,1.2,1.2,80,0.00,CLR,SKC,0.00,0.0,WeatherDisplay:10.37,2013-10-24 08:24:00,
2013-10-24 03:32:00,68.1,62.4,30.08,SW,228,0.0,0.0,82,0.00,CLR,SKC,0.00,0.0,WeatherDisplay:10.37,2013-10-24 08:32:00,
2013-10-24 03:37:00,67.8,62.1,30.08,SW,228,0.0,0.0,82,0.00,CLR,SKC,0.00,0.0,WeatherDisplay:10.37,2013-10-24 08:37:00,
2013-10-24 03:42:00,67.5,62.2,30.08,SW,228,0.0,0.0,83,0.00,CLR,SKC,0.00,0.0,WeatherDisplay:10.37,2013-10-24 08:42:00,
2013-10-24 03:47:00,67.2,61.9,30.08,SW,228,0.0,0.0,83,0.00,CLR,SKC,0.00,0.0,WeatherDisplay:10.37,2013-10-24 08:47:00,
2013-10-24 03:52:00,67.0,62.0,30.08,SW,228,2.3,0.0,84,0.00,CLR,SKC,0.00,0.0,WeatherDisplay:10.37,2013-10-24 08:52:00,
2013-10-24 03:57:00,66.8,61.8,30.08,SW,228,0.0,0.0,84,0.00,CLR,SKC,0.00,0.0,WeatherDisplay:10.37,2013-10-24 08:57:00,
2013-10-24 04:02:00,66.7,61.7,30.08,SW,228,0.0,0.0,84,0.00,CLR,SKC,0.00,0.0,WeatherDisplay:10.37,2013-10-24 09:02:00,
2013-10-24 04:07:00,66.7,61.7,30.08,SW,228,1.2,1.2,84,0.00,CLR,SKC,0.00,0.0,WeatherDisplay:10.37,2013-10-24 09:07:00,
2013-10-24 04:12:00,66.7,61.7,30.08,SW,228,0.0,0.0,84,0.00,CLR,SKC,0.00,0.0,WeatherDisplay:10.37,2013-10-24 09:12:00,
2013-10-24 04:17:00,66.7,61.7,30.08,SW,228,0.0,0.0,84,0.00,CLR,SKC,0.00,0.0,WeatherDisplay:10.37,2013-10-24 09:17:00,
2013-10-24 04:22:00,66.8,62.1,30.08,SW,228,2.3,2.3,85,0.00,CLR,SKC,0.00,0.0,WeatherDisplay:10.37,2013-10-24 09:22:00,
2013-10-24 04:27:00,67.0,62.3,30.08,SW,228,0.0,0.0,85,0.00,CLR,SKC,0.00,0.0,WeatherDisplay:10.37,2013-10-24 09:27:00,
2013-10-24 04:32:00,67.1,62.4,30.08,SW,228,0.0,0.0,85,0.00,CLR,SKC,0.00,0.0,WeatherDisplay:10.37,2013-10-24 09:32:00,
2013-10-24 04:37:00,67.0,62.3,30.08,SW,228,0.0,0.0,85,0.00,CLR,SKC,0.00,0.0,WeatherDisplay:10.37,2013-10-24 09:37:00,
2013-10-24 04:42:00,67.0,62.3,30.08,SW,229,2.0,2.0,85,0.00,CLR,SKC,0.00,0.0,WeatherDisplay:10.37,2013-10-24 09:42:00,
2013-10-24 04:47:00,66.8,62.1,30.08,WNW,283,3.5,3.5,85,0.00,CLR,SKC,0.00,0.0,WeatherDisplay:10.37,2013-10-24 09:47:00,
2013-10-24 04:52:00,66.5,61.8,30.08,WNW,290,0.0,0.0,85,0.00,CLR,SKC,0.00,0.0,WeatherDisplay:10.37,2013-10-24 09:52:00,
2013-10-24 04:57:00,66.4,61.4,30.08,WNW,290,1.2,1.2,84,0.00,CLR,SKC,0.00,0.0,WeatherDisplay:10.37,2013-10-24 09:57:00,
2013-10-24 05:02:00,66.5,61.5,30.08,WNW,290,2.3,2.3,84,0.00,CLR,SKC,0.00,0.0,WeatherDisplay:10.37,2013-10-24 10:02:00,
2013-10-24 05:07:00,66.5,61.5,30.08,WNW,290,2.3,2.3,84,0.00,CLR,SKC,0.00,0.0,WeatherDisplay:10.37,2013-10-24 10:07:00,
2013-10-24 05:12:00,66.5,61.5,30.09,WNW,290,2.3,2.3,84,0.00,CLR,SKC,0.00,0.0,WeatherDisplay:10.37,2013-10-24 10:12:00,
2013-10-24 05:17:00,66.6,61.6,30.09,WNW,290,2.3,2.3,84,0.00,CLR,SKC,0.00,0.0,WeatherDisplay:10.37,2013-10-24 10:17:00,
2013-10-24 05:22:00,66.6,61.6,30.09,WNW,290,2.3,2.3,84,0.00,CLR,SKC,0.00,0.0,WeatherDisplay:10.37,2013-10-24 10:22:00,
2013-10-24 05:27:00,66.7,61.7,30.09,WNW,290,2.3,2.3,84,0.00,CLR,SKC,0.00,0.0,WeatherDisplay:10.37,2013-10-24 10:27:00,
2013-10-24 05:32:00,66.7,61.7,30.09,WNW,290,1.2,1.2,84,0.00,CLR,SKC,0.00,0.0,WeatherDisplay:10.37,2013-10-24 10:32:00,
2013-10-24 05:37:00,66.8,61.8,30.09,WNW,290,1.2,1.2,84,0.00,CLR,SKC,0.00,0.0,WeatherDisplay:10.37,2013-10-24 10:37:00,
2013-10-24 05:42:00,66.8,61.8,30.10,WNW,290,2.3,2.3,84,0.00,CLR,SKC,0.00,0.0,WeatherDisplay:10.37,2013-10-24 10:42:00,
2013-10-24 05:47:00,66.9,62.2,30.10,WNW,290,1.2,1.2,85,0.00,CLR,SKC,0.00,0.0,WeatherDisplay:10.37,2013-10-24 10:47:00,
2013-10-24 05:52:00,67.0,62.3,30.10,WNW,290,1.2,1.2,85,0.00,CLR,SKC,0.00,0.0,WeatherDisplay:10.37,2013-10-24 10:52:00,
2013-10-24 05:57:00,67.0,62.3,30.10,WNW,290,1.2,1.2,85,0.00,CLR,SKC,0.00,0.0,WeatherDisplay:10.37,2013-10-24 10:57:00,
2013-10-24 06:02:00,67.0,62.3,30.10,WNW,290,2.3,2.3,85,0.00,CLR,SKC,0.00,0.0,WeatherDisplay:10.37,2013-10-24 11:02:00,
2013-10-24 06:07:00,67.1,62.4,30.10,WNW,290,2.3,2.3,85,0.00,CLR,SKC,0.00,0.0,WeatherDisplay:10.37,2013-10-24 11:07:00,
2013-10-24 06:12:00,67.1,62.4,30.10,WNW,290,0.0,0.0,85,0.00,CLR,SKC,0.00,0.0,WeatherDisplay:10.37,2013-10-24 11:12:00,
2013-10-24 06:17:00,67.1,62.4,30.10,WNW,290,2.3,2.3,85,0.00,CLR,SKC,0.00,0.0,WeatherDisplay:10.37,2013-10-24 11:17:00,
2013-10-24 06:22:00,67.1,62.4,30.10,WNW,290,0.0,0.0,85,0.00,CLR,SKC,0.00,0.0,WeatherDisplay:10.37,2013-10-24 11:22:00,
2013-10-24 06:27:00,67.1,62.8,30.10,WNW,290,0.0,0.0,86,0.00,CLR,SKC,0.00,0.0,WeatherDisplay:10.37,2013-10-24 11:27:00,
2013-10-24 06:32:00,67.1,62.8,30.10,WNW,290,1.2,1.2,86,0.00,CLR,SKC,0.00,0.0,WeatherDisplay:10.37,2013-10-24 11:32:00,
2013-10-24 06:37:00,67.0,62.7,30.10,WNW,290,0.0,0.0,86,0.00,CLR,SKC,0.00,0.0,WeatherDisplay:10.37,2013-10-24 11:37:00,
2013-10-24 06:42:00,67.0,62.7,30.11,WNW,290,2.3,2.3,86,0.00,CLR,SKC,0.00,0.0,WeatherDisplay:10.37,2013-10-24 11:42:00,
2013-10-24 06:47:00,67.0,62.7,30.11,WNW,294,2.3,2.3,86,0.00,CLR,SKC,0.00,0.0,WeatherDisplay:10.37,2013-10-24 11:47:00,
2013-10-24 06:52:00,67.0,63.0,30.11,WNW,294,2.3,2.3,87,0.00,CLR,SKC,0.00,0.0,WeatherDisplay:10.37,2013-10-24 11:52:00,
2013-10-24 06:57:00,67.1,63.1,30.11,WNW,294,1.2,1.2,87,0.00,CLR,SKC,0.00,0.0,WeatherDisplay:10.37,2013-10-24 11:57:00,
2013-10-24 07:02:00,67.0,63.0,30.11,WNW,294,2.3,2.3,87,0.00,CLR,SKC,0.00,0.0,WeatherDisplay:10.37,2013-10-24 12:02:00,
2013-10-24 07:07:00,67.0,63.0,30.11,WNW,295,2.3,2.3,87,0.00,CLR,SKC,0.00,0.0,WeatherDisplay:10.37,2013-10-24 12:07:00,
2013-10-24 07:12:00,67.0,63.0,30.11,WNW,294,3.5,3.5,87,0.00,CLR,SKC,0.00,0.0,WeatherDisplay:10.37,2013-10-24 12:12:00,
2013-10-24 07:17:00,67.0,63.0,30.11,WNW,294,2.3,2.3,87,0.00,CLR,SKC,0.00,0.0,WeatherDisplay:10.37,2013-10-24 12:17:00,
2013-10-24 07:22:00,67.0,63.0,30.11,WNW,294,1.2,0.0,87,0.00,CLR,SKC,0.00,0.0,WeatherDisplay:10.37,2013-10-24 12:22:00,
2013-10-24 07:27:00,67.1,63.1,30.11,WNW,294,2.3,2.3,87,0.00,CLR,SKC,0.00,0.0,WeatherDisplay:10.37,2013-10-24 12:27:00,
2013-10-24 07:32:00,67.2,63.5,30.11,NW,311,2.3,2.3,88,0.00,CLR,SKC,0.00,0.0,WeatherDisplay:10.37,2013-10-24 12:32:00,
2013-10-24 07:37:00,67.2,63.5,30.11,NW,311,1.2,1.2,88,0.00,CLR,SKC,0.00,7.0,WeatherDisplay:10.37,2013-10-24 12:37:00,
2013-10-24 07:42:00,67.2,63.5,30.12,NW,311,1.2,1.2,88,0.00,CLR,SKC,0.00,11.0,WeatherDisplay:10.37,2013-10-24 12:42:00,
2013-10-24 07:47:00,67.4,64.0,30.12,NW,311,1.2,1.2,89,0.00,CLR,SKC,0.00,35.0,WeatherDisplay:10.37,2013-10-24 12:47:00,
2013-10-24 07:52:00,67.5,64.1,30.12,NW,316,2.3,2.3,89,0.00,CLR,SKC,0.00,49.0,WeatherDisplay:10.37,2013-10-24 12:52:00,
2013-10-24 07:57:00,67.8,64.4,30.13,NW,316,1.2,1.2,89,0.00,CLR,SKC,0.00,65.0,WeatherDisplay:10.37,2013-10-24 12:57:00,
2013-10-24 08:02:00,68.0,64.6,30.13,NW,321,4.0,4.0,89,0.00,CLR,SKC,0.00,84.0,WeatherDisplay:10.37,2013-10-24 13:02:00,
2013-10-24 08:07:00,68.0,64.6,30.13,NNW,329,3.5,3.5,89,0.00,CLR,SKC,0.00,98.0,WeatherDisplay:10.37,2013-10-24 13:07:00,
2013-10-24 08:12:00,68.1,64.7,30.13,NW,315,3.5,3.5,89,0.00,CLR,SKC,0.00,114.0,WeatherDisplay:10.37,2013-10-24 13:12:00,
2013-10-24 08:17:00,68.3,65.3,30.13,NW,315,5.8,5.8,90,0.00,CLR,SKC,0.00,132.0,WeatherDisplay:10.37,2013-10-24 13:17:00,
2013-10-24 08:22:00,68.6,65.5,30.13,NW,304,3.5,3.5,90,0.00,CLR,SKC,0.00,149.0,WeatherDisplay:10.37,2013-10-24 13:22:00,
2013-10-24 08:27:00,68.7,65.6,30.14,NW,309,3.5,3.5,90,0.00,CLR,SKC,0.00,171.0,WeatherDisplay:10.37,2013-10-24 13:27:00,
2013-10-24 08:32:00,68.9,65.8,30.14,NW,326,3.5,3.5,90,0.00,CLR,SKC,0.00,190.0,WeatherDisplay:10.37,2013-10-24 13:32:00,
2013-10-24 08:37:00,69.0,65.9,30.14,NNW,347,3.5,3.5,90,0.00,CLR,SKC,0.00,211.0,WeatherDisplay:10.37,2013-10-24 13:37:00,
2013-10-24 08:42:00,68.9,65.8,30.14,NW,321,4.0,4.0,90,0.00,CLR,SKC,0.00,229.0,WeatherDisplay:10.37,2013-10-24 13:42:00,
2013-10-24 08:47:00,68.9,65.5,30.14,NNW,330,3.5,3.5,89,0.00,CLR,SKC,0.00,244.0,WeatherDisplay:10.37,2013-10-24 13:47:00,
2013-10-24 08:52:00,68.9,65.5,30.14,NNW,330,3.5,3.5,89,0.00,CLR,SKC,0.00,264.0,WeatherDisplay:10.37,2013-10-24 13:52:00,
2013-10-24 08:57:00,69.0,65.3,30.15,NNW,342,3.5,3.5,88,0.00,CLR,SKC,0.00,276.0,WeatherDisplay:10.37,2013-10-24 13:57:00,
2013-10-24 09:02:00,69.0,65.0,30.15,NW,321,4.6,4.6,87,0.00,CLR,SKC,0.00,271.0,WeatherDisplay:10.37,2013-10-24 14:02:00,
2013-10-24 09:07:00,69.2,65.2,30.15,NW,325,4.6,4.6,87,0.00,CLR,SKC,0.00,262.0,WeatherDisplay:10.37,2013-10-24 14:07:00,
2013-10-24 09:12:00,69.4,65.4,30.15,NNW,333,4.6,4.6,87,0.00,CLR,SKC,0.00,311.0,WeatherDisplay:10.37,2013-10-24 14:12:00,
2013-10-24 09:17:00,69.5,65.5,30.15,NW,324,4.6,4.6,87,0.00,CLR,SKC,0.00,346.0,WeatherDisplay:10.37,2013-10-24 14:17:00,
2013-10-24 09:22:00,69.7,65.3,30.15,NNW,327,3.5,3.5,86,0.00,CLR,SKC,0.00,364.0,WeatherDisplay:10.37,2013-10-24 14:22:00,
2013-10-24 09:27:00,69.7,65.0,30.16,NNW,336,4.6,4.6,85,0.00,CLR,SKC,0.00,380.0,WeatherDisplay:10.37,2013-10-24 14:27:00,
2013-10-24 09:32:00,69.9,65.2,30.16,NNE,18,6.0,6.0,85,0.00,CLR,SKC,0.00,394.0,WeatherDisplay:10.37,2013-10-24 14:32:00,
2013-10-24 09:37:00,69.9,64.8,30.16,NW,325,4.6,4.6,84,0.00,CLR,SKC,0.00,410.0,WeatherDisplay:10.37,2013-10-24 14:37:00,
2013-10-24 09:42:00,69.9,64.8,30.16,NNW,340,4.6,4.6,84,0.00,CLR,SKC,0.00,427.0,WeatherDisplay:10.37,2013-10-24 14:42:00,
2013-10-24 09:47:00,70.1,64.7,30.16,NW,325,4.0,4.0,83,0.00,CLR,SKC,0.00,443.0,WeatherDisplay:10.37,2013-10-24 14:47:00,
2013-10-24 09:52:00,70.3,64.5,30.16,NW,320,5.0,5.0,82,0.00,CLR,SKC,0.00,461.0,WeatherDisplay:10.37,2013-10-24 14:52:00,
2013-10-24 09:57:00,70.4,64.6,30.17,NNW,332,3.5,3.5,82,0.00,CLR,SKC,0.00,475.0,WeatherDisplay:10.37,2013-10-24 14:57:00,
2013-10-24 10:02:00,70.4,64.3,30.17,NW,324,3.5,3.5,81,0.00,CLR,SKC,0.00,489.0,WeatherDisplay:10.37,2013-10-24 15:02:00,
2013-10-24 10:07:00,70.4,64.3,30.17,NW,326,5.8,5.8,81,0.00,CLR,SKC,0.00,503.0,WeatherDisplay:10.37,2013-10-24 15:07:00,
2013-10-24 10:12:00,70.7,64.6,30.17,NW,322,3.5,3.5,81,0.00,CLR,SKC,0.00,519.0,WeatherDisplay:10.37,2013-10-24 15:12:00,
2013-10-24 10:17:00,70.8,64.3,30.17,NW,323,3.5,3.5,80,0.00,CLR,SKC,0.00,529.0,WeatherDisplay:10.37,2013-10-24 15:17:00,
2013-10-24 10:22:00,71.0,64.2,30.17,NW,315,5.0,5.0,79,0.00,CLR,SKC,0.00,547.0,WeatherDisplay:10.37,2013-10-24 15:22:00,
2013-10-24 10:27:00,71.1,64.3,30.17,NW,325,4.6,4.6,79,0.00,CLR,SKC,0.00,559.0,WeatherDisplay:10.37,2013-10-24 15:27:00,
2013-10-24 10:32:00,71.3,64.4,30.17,NW,318,3.5,3.5,79,0.00,CLR,SKC,0.00,571.0,WeatherDisplay:10.37,2013-10-24 15:32:00,
2013-10-24 10:37:00,71.5,64.3,30.17,NW,304,6.0,6.0,78,0.00,CLR,SKC,0.00,585.0,WeatherDisplay:10.37,2013-10-24 15:37:00,
2013-10-24 10:42:00,71.7,64.1,30.17,NW,315,5.8,5.8,77,0.00,CLR,SKC,0.00,598.0,WeatherDisplay:10.37,2013-10-24 15:42:00,
2013-10-24 10:47:00,72.0,64.4,30.17,NNW,336,4.6,4.6,77,0.00,CLR,SKC,0.00,606.0,WeatherDisplay:10.37,2013-10-24 15:47:00,
2013-10-24 10:52:00,72.2,64.6,30.17,North,355,3.5,3.5,77,0.00,CLR,SKC,0.00,622.0,WeatherDisplay:10.37,2013-10-24 15:52:00,
2013-10-24 10:57:00,72.2,63.8,30.17,NW,321,6.9,6.9,75,0.00,CLR,SKC,0.00,631.0,WeatherDisplay:10.37,2013-10-24 15:57:00,
2013-10-24 11:02:00,72.3,64.3,30.17,NW,321,5.8,5.8,76,0.00,CLR,SKC,0.00,642.0,WeatherDisplay:10.37,2013-10-24 16:02:00,
2013-10-24 11:07:00,72.3,63.9,30.17,NW,319,5.0,5.0,75,0.00,CLR,SKC,0.00,652.0,WeatherDisplay:10.37,2013-10-24 16:07:00,
2013-10-24 11:12:00,72.3,63.9,30.17,WNW,299,5.8,5.8,75,0.00,CLR,SKC,0.00,663.0,WeatherDisplay:10.37,2013-10-24 16:12:00,
2013-10-24 11:17:00,72.5,64.1,30.17,NW,310,3.5,3.5,75,0.00,CLR,SKC,0.00,673.0,WeatherDisplay:10.37,2013-10-24 16:17:00,
2013-10-24 11:22:00,72.7,64.3,30.17,NNW,346,1.2,1.2,75,0.00,CLR,SKC,0.00,682.0,WeatherDisplay:10.37,2013-10-24 16:22:00,
2013-10-24 11:27:00,73.1,64.3,30.17,North,9,3.5,3.5,74,0.00,CLR,SKC,0.00,693.0,WeatherDisplay:10.37,2013-10-24 16:27:00,
2013-10-24 11:32:00,73.2,64.0,30.17,NW,323,4.6,4.6,73,0.00,CLR,SKC,0.00,700.0,WeatherDisplay:10.37,2013-10-24 16:32:00,
2013-10-24 11:37:00,73.1,63.5,30.17,NE,40,3.5,3.5,72,0.00,CLR,SKC,0.00,705.0,WeatherDisplay:10.37,2013-10-24 16:37:00,
2013-10-24 11:42:00,73.6,63.2,30.18,NE,48,3.5,3.5,70,0.00,CLR,SKC,0.00,719.0,WeatherDisplay:10.37,2013-10-24 16:42:00,
2013-10-24 11:47:00,74.0,63.6,30.18,NNE,26,3.5,3.5,70,0.00,CLR,SKC,0.00,721.0,WeatherDisplay:10.37,2013-10-24 16:47:00,
2013-10-24 11:52:00,74.0,63.2,30.18,NNE,15,3.5,3.5,69,0.00,CLR,SKC,0.00,729.0,WeatherDisplay:10.37,2013-10-24 16:52:00,
2013-10-24 11:57:00,74.2,64.2,30.18,ENE,63,4.0,4.0,71,0.00,CLR,SKC,0.00,737.0,WeatherDisplay:10.37,2013-10-24 16:57:00,
2013-10-24 12:02:00,74.3,64.3,30.18,NE,38,2.3,2.3,71,0.00,CLR,SKC,0.00,742.0,WeatherDisplay:10.37,2013-10-24 17:02:00,
2013-10-24 12:07:00,74.5,64.1,30.18,NE,36,5.0,5.0,70,0.00,CLR,SKC,0.00,759.0,WeatherDisplay:10.37,2013-10-24 17:07:00,
2013-10-24 12:12:00,74.6,63.3,30.17,ENE,69,5.0,5.0,68,0.00,CLR,SKC,0.00,770.0,WeatherDisplay:10.37,2013-10-24 17:12:00,
2013-10-24 12:17:00,74.7,63.4,30.17,ENE,71,5.8,5.8,68,0.00,CLR,SKC,0.00,759.0,WeatherDisplay:10.37,2013-10-24 17:17:00,
2013-10-24 12:22:00,74.8,63.5,30.17,ENE,58,4.0,4.0,68,0.00,CLR,SKC,0.00,763.0,WeatherDisplay:10.37,2013-10-24 17:22:00,
2013-10-24 12:27:00,74.9,64.0,30.17,ENE,63,5.8,5.8,69,0.00,CLR,SKC,0.00,772.0,WeatherDisplay:10.37,2013-10-24 17:27:00,
2013-10-24 12:32:00,74.9,63.6,30.17,ENE,69,3.5,3.5,68,0.00,CLR,SKC,0.00,791.0,WeatherDisplay:10.37,2013-10-24 17:32:00,
2013-10-24 12:37:00,75.0,64.1,30.17,NE,51,6.9,6.9,69,0.00,CLR,SKC,0.00,772.0,WeatherDisplay:10.37,2013-10-24 17:37:00,
2013-10-24 12:42:00,74.9,63.6,30.17,ENE,77,9.2,9.2,68,0.00,CLR,SKC,0.00,777.0,WeatherDisplay:10.37,2013-10-24 17:42:00,
2013-10-24 12:47:00,74.9,64.0,30.17,NE,56,5.0,5.0,69,0.00,CLR,SKC,0.00,780.0,WeatherDisplay:10.37,2013-10-24 17:47:00,
2013-10-24 12:52:00,74.9,63.2,30.17,East,98,6.9,6.9,67,0.00,CLR,SKC,0.00,779.0,WeatherDisplay:10.37,2013-10-24 17:52:00,
2013-10-24 12:57:00,75.0,63.3,30.16,ENE,74,3.5,3.5,67,0.00,CLR,SKC,0.00,800.0,WeatherDisplay:10.37,2013-10-24 17:57:00,
2013-10-24 13:02:00,75.1,63.8,30.16,ENE,66,6.9,6.9,68,0.00,CLR,SKC,0.00,798.0,WeatherDisplay:10.37,2013-10-24 18:02:00,
2013-10-24 13:07:00,75.2,63.9,30.16,NNE,15,4.6,4.6,68,0.00,CLR,SKC,0.00,780.0,WeatherDisplay:10.37,2013-10-24 18:07:00,
2013-10-24 13:12:00,75.2,63.5,30.16,East,90,7.0,7.0,67,0.00,CLR,SKC,0.00,780.0,WeatherDisplay:10.37,2013-10-24 18:12:00,
2013-10-24 13:17:00,75.4,63.7,30.16,NE,55,9.2,9.2,67,0.00,CLR,SKC,0.00,779.0,WeatherDisplay:10.37,2013-10-24 18:17:00,
2013-10-24 13:22:00,75.1,62.5,30.16,East,90,5.8,5.8,65,0.00,CLR,SKC,0.00,775.0,WeatherDisplay:10.37,2013-10-24 18:22:00,
2013-10-24 13:27:00,75.3,62.7,30.16,ENE,72,6.9,6.9,65,0.00,CLR,SKC,0.00,773.0,WeatherDisplay:10.37,2013-10-24 18:27:00,
2013-10-24 13:32:00,75.3,62.7,30.16,ENE,65,5.8,5.8,65,0.00,CLR,SKC,0.00,770.0,WeatherDisplay:10.37,2013-10-24 18:32:00,
2013-10-24 13:37:00,75.4,63.2,30.16,ENE,76,6.9,6.9,66,0.00,CLR,SKC,0.00,766.0,WeatherDisplay:10.37,2013-10-24 18:37:00,
2013-10-24 13:42:00,75.3,63.2,30.15,East,81,9.2,9.2,66,0.00,CLR,SKC,0.00,763.0,WeatherDisplay:10.37,2013-10-24 18:42:00,
2013-10-24 13:47:00,75.3,63.2,30.15,ENE,61,4.6,4.6,66,0.00,CLR,SKC,0.00,758.0,WeatherDisplay:10.37,2013-10-24 18:47:00,
2013-10-24 13:52:00,75.4,63.7,30.15,ENE,63,9.2,9.2,67,0.00,CLR,SKC,0.00,752.0,WeatherDisplay:10.37,2013-10-24 18:52:00,
2013-10-24 13:57:00,75.3,63.2,30.14,ENE,76,8.1,8.1,66,0.00,CLR,SKC,0.00,765.0,WeatherDisplay:10.37,2013-10-24 18:57:00,
2013-10-24 14:02:00,75.4,62.8,30.14,NNE,25,9.2,9.2,65,0.00,CLR,SKC,0.00,744.0,WeatherDisplay:10.37,2013-10-24 19:02:00,
2013-10-24 14:07:00,75.7,63.1,30.14,ENE,61,8.1,8.1,65,0.00,CLR,SKC,0.00,738.0,WeatherDisplay:10.37,2013-10-24 19:07:00,
2013-10-24 14:12:00,75.6,63.4,30.13,NE,52,10.4,10.4,66,0.00,CLR,SKC,0.00,729.0,WeatherDisplay:10.37,2013-10-24 19:12:00,
2013-10-24 14:17:00,75.5,63.8,30.13,East,84,6.0,6.0,67,0.00,CLR,SKC,0.00,726.0,WeatherDisplay:10.37,2013-10-24 19:17:00,
2013-10-24 14:22:00,75.4,63.2,30.13,ENE,59,6.9,6.9,66,0.00,CLR,SKC,0.00,719.0,WeatherDisplay:10.37,2013-10-24 19:22:00,
2013-10-24 14:27:00,75.4,64.1,30.13,ENE,65,6.9,6.9,68,0.00,CLR,SKC,0.00,712.0,WeatherDisplay:10.37,2013-10-24 19:27:00,
2013-10-24 14:32:00,75.3,63.2,30.13,ESE,115,8.1,8.1,66,0.00,CLR,SKC,0.00,701.0,WeatherDisplay:10.37,2013-10-24 19:32:00,
2013-10-24 14:37:00,75.6,64.3,30.13,ENE,78,11.5,11.5,68,0.00,CLR,SKC,0.00,696.0,WeatherDisplay:10.37,2013-10-24 19:37:00,
2013-10-24 14:42:00,75.3,64.4,30.12,East,89,9.2,9.2,69,0.00,CLR,SKC,0.00,701.0,WeatherDisplay:10.37,2013-10-24 19:42:00,
2013-10-24 14:47:00,75.3,64.0,30.12,ENE,73,6.9,6.9,68,0.00,CLR,SKC,0.00,647.0,WeatherDisplay:10.37,2013-10-24 19:47:00,
2013-10-24 14:52:00,75.4,63.7,30.12,East,84,11.5,11.5,67,0.00,CLR,SKC,0.00,675.0,WeatherDisplay:10.37,2013-10-24 19:52:00,
2013-10-24 14:57:00,75.4,63.7,30.12,ENE,74,10.4,10.4,67,0.00,CLR,SKC,0.00,649.0,WeatherDisplay:10.37,2013-10-24 19:57:00,
2013-10-24 15:02:00,75.4,64.1,30.12,NE,52,7.0,7.0,68,0.00,CLR,SKC,0.00,647.0,WeatherDisplay:10.37,2013-10-24 20:02:00,
2013-10-24 15:07:00,75.5,65.0,30.12,NE,51,9.2,9.2,70,0.00,CLR,SKC,0.00,633.0,WeatherDisplay:10.37,2013-10-24 20:07:00,
2013-10-24 15:12:00,75.3,65.6,30.11,ENE,75,11.5,11.5,72,0.00,CLR,SKC,0.00,626.0,WeatherDisplay:10.37,2013-10-24 20:12:00,
2013-10-24 15:17:00,75.0,65.8,30.11,East,82,10.4,10.4,73,0.00,CLR,SKC,0.00,619.0,WeatherDisplay:10.37,2013-10-24 20:17:00,
2013-10-24 15:22:00,75.0,65.4,30.11,ENE,61,9.2,9.2,72,0.00,CLR,SKC,0.00,603.0,WeatherDisplay:10.37,2013-10-24 20:22:00,
2013-10-24 15:27:00,75.0,65.0,30.11,ENE,59,10.4,10.4,71,0.00,CLR,SKC,0.00,582.0,WeatherDisplay:10.37,2013-10-24 20:27:00,
2013-10-24 15:32:00,75.1,65.5,30.11,ENE,66,10.4,10.4,72,0.00,CLR,SKC,0.00,580.0,WeatherDisplay:10.37,2013-10-24 20:32:00,
2013-10-24 15:37:00,75.1,64.6,30.11,NE,49,10.4,10.4,70,0.00,CLR,SKC,0.00,571.0,WeatherDisplay:10.37,2013-10-24 20:37:00,
2013-10-24 15:42:00,75.2,66.3,30.11,East,86,11.5,11.5,74,0.00,CLR,SKC,0.00,497.0,WeatherDisplay:10.37,2013-10-24 20:42:00,
2013-10-24 15:47:00,75.1,66.6,30.11,ENE,78,7.0,7.0,75,0.00,CLR,SKC,0.00,552.0,WeatherDisplay:10.37,2013-10-24 20:47:00,
2013-10-24 15:52:00,75.3,66.8,30.11,ESE,103,9.2,9.2,75,0.00,CLR,SKC,0.00,508.0,WeatherDisplay:10.37,2013-10-24 20:52:00,
2013-10-24 15:57:00,75.3,66.8,30.11,ENE,57,9.2,9.2,75,0.00,CLR,SKC,0.00,515.0,WeatherDisplay:10.37,2013-10-24 20:57:00,
2013-10-24 16:02:00,75.1,66.6,30.11,ENE,77,12.7,12.7,75,0.00,CLR,SKC,0.00,552.0,WeatherDisplay:10.37,2013-10-24 21:02:00,
2013-10-24 16:07:00,75.0,66.1,30.11,East,82,12.0,12.0,74,0.00,CLR,SKC,0.00,536.0,WeatherDisplay:10.37,2013-10-24 21:07:00,
2013-10-24 16:12:00,75.1,66.2,30.11,NE,55,11.5,11.5,74,0.00,CLR,SKC,0.00,480.0,WeatherDisplay:10.37,2013-10-24 21:12:00,
2013-10-24 16:17:00,75.1,66.6,30.11,East,80,12.0,12.0,75,0.00,CLR,SKC,0.00,455.0,WeatherDisplay:10.37,2013-10-24 21:17:00,
2013-10-24 16:22:00,75.0,66.5,30.11,ENE,69,11.5,11.5,75,0.00,CLR,SKC,0.00,443.0,WeatherDisplay:10.37,2013-10-24 21:22:00,
2013-10-24 16:27:00,75.2,66.7,30.11,NE,48,11.5,11.5,75,0.00,CLR,SKC,0.00,420.0,WeatherDisplay:10.37,2013-10-24 21:27:00,
2013-10-24 16:32:00,75.3,66.4,30.11,ENE,76,11.5,11.5,74,0.00,CLR,SKC,0.00,410.0,WeatherDisplay:10.37,2013-10-24 21:32:00,
2013-10-24 16:37:00,75.3,66.8,30.11,NE,56,10.4,10.4,75,0.00,CLR,SKC,0.00,392.0,WeatherDisplay:10.37,2013-10-24 21:37:00,
2013-10-24 16:42:00,75.3,66.8,30.11,ENE,60,8.1,8.1,75,0.00,CLR,SKC,0.00,387.0,WeatherDisplay:10.37,2013-10-24 21:42:00,
2013-10-24 16:47:00,75.3,66.8,30.11,NE,51,11.5,11.5,75,0.00,CLR,SKC,0.00,376.0,WeatherDisplay:10.37,2013-10-24 21:47:00,
2013-10-24 16:52:00,75.6,67.1,30.11,NE,46,8.1,8.1,75,0.00,CLR,SKC,0.00,338.0,WeatherDisplay:10.37,2013-10-24 21:52:00,
2013-10-24 16:57:00,75.5,66.6,30.11,East,80,11.5,11.5,74,0.00,CLR,SKC,0.00,334.0,WeatherDisplay:10.37,2013-10-24 21:57:00,
2013-10-24 17:02:00,75.5,67.0,30.11,East,81,11.5,11.5,75,0.00,CLR,SKC,0.00,332.0,WeatherDisplay:10.37,2013-10-24 22:02:00,
2013-10-24 17:07:00,75.5,67.0,30.11,ENE,67,11.5,11.5,75,0.00,CLR,SKC,0.00,316.0,WeatherDisplay:10.37,2013-10-24 22:07:00,
2013-10-24 17:12:00,75.6,67.1,30.11,ENE,73,12.0,12.0,75,0.00,CLR,SKC,0.00,287.0,WeatherDisplay:10.37,2013-10-24 22:12:00,
2013-10-24 17:17:00,75.6,67.1,30.11,NE,47,10.4,10.4,75,0.00,CLR,SKC,0.00,56.0,WeatherDisplay:10.37,2013-10-24 22:17:00,
2013-10-24 17:22:00,75.7,67.2,30.11,ENE,63,11.0,11.0,75,0.00,CLR,SKC,0.00,251.0,WeatherDisplay:10.37,2013-10-24 22:22:00,
2013-10-24 17:27:00,75.7,66.0,30.10,East,90,11.5,11.5,72,0.00,CLR,SKC,0.00,234.0,WeatherDisplay:10.37,2013-10-24 22:27:00,
2013-10-24 17:32:00,75.8,66.1,30.10,ENE,57,11.5,11.5,72,0.00,CLR,SKC,0.00,220.0,WeatherDisplay:10.37,2013-10-24 22:32:00,
2013-10-24 17:37:00,75.9,66.2,30.10,East,92,11.5,11.5,72,0.00,CLR,SKC,0.00,206.0,WeatherDisplay:10.37,2013-10-24 22:37:00,
2013-10-24 17:42:00,76.0,65.9,30.11,ENE,78,11.5,11.5,71,0.00,CLR,SKC,0.00,193.0,WeatherDisplay:10.37,2013-10-24 22:42:00,
2013-10-24 17:47:00,75.9,65.8,30.11,ENE,64,11.5,11.5,71,0.00,CLR,SKC,0.00,176.0,WeatherDisplay:10.37,2013-10-24 22:47:00,
2013-10-24 17:52:00,75.8,66.1,30.11,ENE,68,11.5,11.5,72,0.00,CLR,SKC,0.00,151.0,WeatherDisplay:10.37,2013-10-24 22:52:00,
2013-10-24 17:57:00,75.8,65.7,30.10,ENE,67,13.8,13.8,71,0.00,CLR,SKC,0.00,158.0,WeatherDisplay:10.37,2013-10-24 22:57:00,
2013-10-24 18:02:00,75.7,65.6,30.10,East,82,11.5,11.5,71,0.00,CLR,SKC,0.00,98.0,WeatherDisplay:10.37,2013-10-24 23:02:00,
2013-10-24 18:07:00,75.7,65.6,30.10,ENE,69,13.8,13.8,71,0.00,CLR,SKC,0.00,26.0,WeatherDisplay:10.37,2013-10-24 23:07:00,
2013-10-24 18:12:00,75.8,63.2,30.11,ENE,78,5.8,5.8,65,0.00,CLR,SKC,0.00,25.0,WeatherDisplay:10.37,2013-10-24 23:12:00,
2013-10-24 18:17:00,76.0,62.5,30.11,ENE,67,6.9,6.9,63,0.00,CLR,SKC,0.00,21.0,WeatherDisplay:10.37,2013-10-24 23:17:00,
2013-10-24 18:22:00,76.0,62.5,30.11,East,90,6.9,6.9,63,0.00,CLR,SKC,0.00,19.0,WeatherDisplay:10.37,2013-10-24 23:22:00,
2013-10-24 18:27:00,75.9,62.4,30.11,ESE,103,10.4,10.4,63,0.00,CLR,SKC,0.00,16.0,WeatherDisplay:10.37,2013-10-24 23:27:00,
2013-10-24 18:32:00,75.8,62.8,30.11,East,88,7.0,7.0,64,0.00,CLR,SKC,0.00,14.0,WeatherDisplay:10.37,2013-10-24 23:32:00,
2013-10-24 18:37:00,75.8,62.3,30.11,East,91,10.0,10.0,63,0.00,CLR,SKC,0.00,12.0,WeatherDisplay:10.37,2013-10-24 23:37:00,
2013-10-24 18:42:00,75.7,62.7,30.11,East,96,6.9,6.9,64,0.00,CLR,SKC,0.00,9.0,WeatherDisplay:10.37,2013-10-24 23:42:00,
2013-10-24 18:47:00,75.6,63.0,30.11,East,79,6.0,6.0,65,0.00,CLR,SKC,0.00,7.0,WeatherDisplay:10.37,2013-10-24 23:47:00,
2013-10-24 18:52:00,75.6,62.6,30.11,East,80,6.9,6.9,64,0.00,CLR,SKC,0.00,5.0,WeatherDisplay:10.37,2013-10-24 23:52:00,
2013-10-24 18:57:00,75.5,62.5,30.11,East,90,6.9,6.9,64,0.00,CLR,SKC,0.00,0.0,WeatherDisplay:10.37,2013-10-24 23:57:00,
2013-10-24 19:02:00,75.4,62.4,30.11,East,87,5.8,5.8,64,0.00,CLR,SKC,0.00,0.0,WeatherDisplay:10.37,2013-10-25 00:02:00,
2013-10-24 19:07:00,75.4,62.8,30.11,East,91,5.0,5.0,65,0.00,CLR,SKC,0.00,0.0,WeatherDisplay:10.37,2013-10-25 00:07:00,
2013-10-24 19:12:00,75.3,62.7,30.12,East,84,7.0,7.0,65,0.00,CLR,SKC,0.00,0.0,WeatherDisplay:10.37,2013-10-25 00:12:00,
2013-10-24 19:17:00,75.3,62.3,30.12,East,96,5.0,5.0,64,0.00,CLR,SKC,0.00,0.0,WeatherDisplay:10.37,2013-10-25 00:17:00,
2013-10-24 19:22:00,75.3,62.3,30.12,ENE,76,5.8,5.8,64,0.00,CLR,SKC,0.00,0.0,WeatherDisplay:10.37,2013-10-25 00:22:00,
2013-10-24 19:27:00,75.2,62.6,30.12,East,96,4.0,4.0,65,0.00,CLR,SKC,0.00,0.0,WeatherDisplay:10.37,2013-10-25 00:27:00,
2013-10-24 19:32:00,75.2,62.6,30.12,East,91,3.5,3.7,65,0.00,CLR,SKC,0.00,0.0,WeatherDisplay:10.37,2013-10-25 00:32:00,
2013-10-24 19:37:00,75.2,63.1,30.12,East,90,3.5,3.5,66,0.00,CLR,SKC,0.00,0.0,WeatherDisplay:10.37,2013-10-25 00:37:00,
2013-10-24 19:42:00,75.2,62.6,30.12,East,96,4.6,4.6,65,0.00,CLR,SKC,0.00,0.0,WeatherDisplay:10.37,2013-10-25 00:42:00,
2013-10-24 19:47:00,75.1,63.0,30.12,ENE,74,3.5,3.5,66,0.00,CLR,SKC,0.00,0.0,WeatherDisplay:10.37,2013-10-25 00:47:00,
2013-10-24 19:52:00,75.0,63.3,30.12,East,88,3.5,3.5,67,0.00,CLR,SKC,0.00,0.0,WeatherDisplay:10.37,2013-10-25 00:52:00,
2013-10-24 19:57:00,74.9,63.6,30.13,East,84,3.5,3.5,68,0.00,CLR,SKC,0.00,0.0,WeatherDisplay:10.37,2013-10-25 00:57:00,
2013-10-24 20:02:00,74.9,63.6,30.13,East,84,3.5,3.5,68,0.00,CLR,SKC,0.00,0.0,WeatherDisplay:10.37,2013-10-25 01:02:00,
2013-10-24 20:07:00,74.8,63.5,30.13,East,86,3.5,3.5,68,0.00,CLR,SKC,0.00,0.0,WeatherDisplay:10.37,2013-10-25 01:07:00,
2013-10-24 20:12:00,74.8,63.5,30.13,East,80,3.5,3.5,68,0.00,CLR,SKC,0.00,0.0,WeatherDisplay:10.37,2013-10-25 01:12:00,
2013-10-24 20:17:00,74.9,64.0,30.13,East,98,6.0,6.0,69,0.00,CLR,SKC,0.00,0.0,WeatherDisplay:10.37,2013-10-25 01:17:00,
2013-10-24 20:22:00,75.1,63.8,30.13,East,101,7.0,7.0,68,0.00,CLR,SKC,0.00,0.0,WeatherDisplay:10.37,2013-10-25 01:22:00,
2013-10-24 20:27:00,75.3,63.6,30.14,East,89,6.9,7.0,67,0.00,CLR,SKC,0.00,0.0,WeatherDisplay:10.37,2013-10-25 01:27:00,
2013-10-24 20:32:00,75.4,63.2,30.14,East,91,6.9,6.9,66,0.00,CLR,SKC,0.00,0.0,WeatherDisplay:10.37,2013-10-25 01:32:00,
2013-10-24 20:37:00,75.4,62.4,30.14,ESE,105,10.4,10.4,64,0.00,CLR,SKC,0.00,0.0,WeatherDisplay:10.37,2013-10-25 01:37:00,
2013-10-24 20:42:00,75.4,62.8,30.14,East,84,7.0,7.0,65,0.00,CLR,SKC,0.00,0.0,WeatherDisplay:10.37,2013-10-25 01:42:00,
2013-10-24 20:47:00,75.3,63.2,30.14,East,94,5.8,5.8,66,0.00,CLR,SKC,0.00,0.0,WeatherDisplay:10.37,2013-10-25 01:47:00,
2013-10-24 20:52:00,75.1,62.5,30.14,East,87,6.9,6.9,65,0.00,CLR,SKC,0.00,0.0,WeatherDisplay:10.37,2013-10-25 01:52:00,
2013-10-24 20:57:00,75.2,62.6,30.14,SE,124,6.9,6.9,65,0.00,CLR,SKC,0.00,0.0,WeatherDisplay:10.37,2013-10-25 01:57:00,
2013-10-24 21:02:00,75.1,63.0,30.14,ESE,122,3.5,3.5,66,0.00,CLR,SKC,0.00,0.0,WeatherDisplay:10.37,2013-10-25 02:02:00,
2013-10-24 21:07:00,75.1,63.0,30.14,SE,128,6.9,6.9,66,0.00,CLR,SKC,0.00,0.0,WeatherDisplay:10.37,2013-10-25 02:07:00,
2013-10-24 21:12:00,75.1,63.4,30.15,East,95,4.6,4.6,67,0.00,CLR,SKC,0.00,0.0,WeatherDisplay:10.37,2013-10-25 02:12:00,
2013-10-24 21:17:00,74.9,63.2,30.15,ESE,117,6.9,6.9,67,0.00,CLR,SKC,0.00,0.0,WeatherDisplay:10.37,2013-10-25 02:17:00,
2013-10-24 21:22:00,74.9,62.3,30.15,East,101,5.0,5.0,65,0.00,CLR,SKC,0.00,0.0,WeatherDisplay:10.37,2013-10-25 02:22:00,
2013-10-24 21:27:00,75.0,62.0,30.15,ESE,118,6.9,6.9,64,0.00,CLR,SKC,0.00,0.0,WeatherDisplay:10.37,2013-10-25 02:27:00,
2013-10-24 21:32:00,75.0,62.0,30.15,ESE,109,6.9,6.9,64,0.00,CLR,SKC,0.00,0.0,WeatherDisplay:10.37,2013-10-25 02:32:00,
2013-10-24 21:37:00,75.0,62.4,30.15,ENE,78,4.0,4.0,65,0.00,CLR,SKC,0.00,0.0,WeatherDisplay:10.37,2013-10-25 02:37:00,
2013-10-24 21:42:00,75.0,62.4,30.16,East,98,9.0,9.0,65,0.00,CLR,SKC,0.00,0.0,WeatherDisplay:10.37,2013-10-25 02:42:00,
2013-10-24 21:47:00,75.0,62.4,30.16,ESE,110,4.6,4.6,65,0.00,CLR,SKC,0.00,0.0,WeatherDisplay:10.37,2013-10-25 02:47:00,
2013-10-24 21:52:00,74.9,62.8,30.16,ESE,109,4.6,4.6,66,0.00,CLR,SKC,0.00,0.0,WeatherDisplay:10.37,2013-10-25 02:52:00,
2013-10-24 21:57:00,74.9,62.3,30.16,ESE,102,6.0,6.0,65,0.00,CLR,SKC,0.00,0.0,WeatherDisplay:10.37,2013-10-25 02:57:00,
2013-10-24 22:02:00,74.9,61.9,30.16,ESE,103,4.6,4.6,64,0.00,CLR,SKC,0.00,0.0,WeatherDisplay:10.37,2013-10-25 03:02:00,
2013-10-24 22:07:00,75.0,62.4,30.16,East,91,6.9,6.9,65,0.00,CLR,SKC,0.00,0.0,WeatherDisplay:10.37,2013-10-25 03:07:00,
2013-10-24 22:12:00,75.0,62.9,30.16,East,93,3.5,3.5,66,0.00,CLR,SKC,0.00,0.0,WeatherDisplay:10.37,2013-10-25 03:12:00,
2013-10-24 22:17:00,75.0,63.3,30.16,ESE,116,5.8,5.8,67,0.00,CLR,SKC,0.00,0.0,WeatherDisplay:10.37,2013-10-25 03:17:00,
2013-10-24 22:22:00,75.0,62.9,30.16,East,86,10.4,10.4,66,0.00,CLR,SKC,0.00,0.0,WeatherDisplay:10.37,2013-10-25 03:22:00,
2013-10-24 22:27:00,75.0,62.4,30.16,ESE,118,4.6,4.6,65,0.00,CLR,SKC,0.00,0.0,WeatherDisplay:10.37,2013-10-25 03:27:00,
2013-10-24 22:32:00,74.8,62.2,30.16,East,96,3.5,3.5,65,0.00,CLR,SKC,0.00,0.0,WeatherDisplay:10.37,2013-10-25 03:32:00,
2013-10-24 22:37:00,74.7,62.6,30.16,ESE,111,3.5,3.5,66,0.00,CLR,SKC,0.00,0.0,WeatherDisplay:10.37,2013-10-25 03:37:00,
2013-10-24 22:42:00,74.6,62.5,30.17,East,93,5.0,5.0,66,0.00,CLR,SKC,0.00,0.0,WeatherDisplay:10.37,2013-10-25 03:42:00,
2013-10-24 22:47:00,74.7,62.6,30.17,East,96,4.6,4.6,66,0.00,CLR,SKC,0.00,0.0,WeatherDisplay:10.37,2013-10-25 03:47:00,
2013-10-24 22:52:00,74.7,62.1,30.17,East,100,5.0,5.0,65,0.00,CLR,SKC,0.00,0.0,WeatherDisplay:10.37,2013-10-25 03:52:00,
2013-10-24 22:57:00,74.8,61.4,30.17,ESE,110,6.9,6.9,63,0.00,CLR,SKC,0.00,0.0,WeatherDisplay:10.37,2013-10-25 03:57:00,
2013-10-24 23:01:00,74.9,61.9,30.17,ESE,103,2.0,6.0,64,0.00,CLR,SKC,0.00,0.0,WeatherDisplay:10.37,2013-10-25 04:01:00,
2013-10-24 23:02:00,74.9,61.9,30.17,ESE,114,5.8,5.8,64,0.00,CLR,SKC,0.00,0.0,WeatherDisplay:10.37,2013-10-25 04:02:00,
2013-10-24 23:07:00,74.7,62.1,30.17,East,101,5.0,5.0,65,0.00,CLR,SKC,0.00,0.0,WeatherDisplay:10.37,2013-10-25 04:07:00,
2013-10-24 23:12:00,74.6,62.1,30.17,ESE,109,4.6,4.6,65,0.00,CLR,SKC,0.00,0.0,WeatherDisplay:10.37,2013-10-25 04:12:00,
2013-10-24 23:17:00,74.5,62.4,30.17,East,87,3.5,3.5,66,0.00,CLR,SKC,0.00,0.0,WeatherDisplay:10.37,2013-10-25 04:17:00,
2013-10-24 23:22:00,74.4,62.7,30.17,East,101,3.5,3.5,67,0.00,CLR,SKC,0.00,0.0,WeatherDisplay:10.37,2013-10-25 04:22:00,
2013-10-24 23:27:00,74.3,62.6,30.17,ESE,112,5.8,5.8,67,0.00,CLR,SKC,0.00,0.0,WeatherDisplay:10.37,2013-10-25 04:27:00,
2013-10-24 23:32:00,74.4,62.7,30.17,ESE,113,4.6,4.6,67,0.00,CLR,SKC,0.00,0.0,WeatherDisplay:10.37,2013-10-25 04:32:00,
2013-10-24 23:37:00,74.5,62.8,30.17,ESE,114,3.5,3.7,67,0.00,CLR,SKC,0.00,0.0,WeatherDisplay:10.37,2013-10-25 04:37:00,
2013-10-24 23:42:00,74.4,62.7,30.17,ESE,116,3.5,3.5,67,0.00,CLR,SKC,0.00,0.0,WeatherDisplay:10.37,2013-10-25 04:42:00,
2013-10-24 23:47:00,74.4,62.7,30.17,SE,140,3.0,3.0,67,0.00,CLR,SKC,0.00,0.0,WeatherDisplay:10.37,2013-10-25 04:47:00,
2013-10-24 23:52:00,74.5,62.8,30.17,SE,125,4.6,4.6,67,0.00,CLR,SKC,0.00,0.0,WeatherDisplay:10.37,2013-10-25 04:52:00,
2013-10-24 23:57:00,74.6,62.9,30.17,ESE,115,4.6,4.6,67,0.00,CLR,SKC,0.00,0.0,WeatherDisplay:10.37,2013-10-25 04:57:00,